Agatti Island, Agatti Airport (VOAT)

NameAgatti Airport
CityAgatti Island
CountryIndia
ICAOVOAT
IATAAGX
Altitude4 m
CoordinatesGoogle Map
Live Air TrafficLiveATC.net
METARVOAT 220500Z 03004KT 6000 FEW015 30/25 Q1015 NOSIG
2020-02-22 05:00:00 Wind: North-Northeast (30°) 2.06 m/s - Visibility: 6000 m - Temperature: 30 °C - Dew point: 25 °C - Humidity: 74.6% - Pressure: 1015 hPa

Sorry, no flights used the airport in this database.